Time;durP1;ratioP1;P1;durP2;ratioP2;P2;SDS_P1;SDS_P2;PMS_P1;PMS_P2;Temp;Humidity;BMP_temperature;BMP_pressure;BME280_temperature;BME280_humidity;BME280_pressure;Samples;Min_cycle;Max_cycle;Signal;HPM_P1;HPM_P2
2022/01/22 00:00:03;;;;;;;;;;;;;;;;;;10531846;28;20350;-85
2022/01/22 00:05:04;;;;;;;;;;;;;;;;;;10529440;28;19975;-85
2022/01/22 00:10:07;;;;;;;;;;;;;;;;;;10531943;28;19964;-85
2022/01/22 00:15:09;;;;;;;;;;;;;;;;;;10531308;28;19908;-85
2022/01/22 00:20:10;;;;;;;;;;;;;;;;;;10527895;28;20281;-85
2022/01/22 00:25:10;;;;;;;;;;;;;;;;;;10529160;28;19911;-85
2022/01/22 00:30:11;;;;;;;;;;;;;;;;;;10529991;28;19959;-85
2022/01/22 00:35:12;;;;;;;;;;;;;;;;;;10529332;28;19909;-85
2022/01/22 00:40:14;;;;;;;;;;;;;;;;;;10527942;28;19991;-85
2022/01/22 00:45:15;;;;;;;;;;;;;;;;;;10527458;28;19939;-85
2022/01/22 00:50:16;;;;;;;;;;;;;;;;;;10529042;28;19984;-85
2022/01/22 00:55:16;;;;;;;;;;;;;;;;;;10527449;28;20395;-84
2022/01/22 01:00:17;;;;;;;;;;;;;;;;;;10526864;28;20322;-85
2022/01/22 01:05:18;;;;;;;;;;;;;;;;;;10524251;28;19975;-84
2022/01/22 01:10:20;;;;;;;;;;;;;;;;;;10522604;28;19998;-84
2022/01/22 01:36:41;;;;;;;;;;;;;;;;;;10514117;28;20286;-85
2022/01/22 01:42:31;;;;;;;;;;;;;;;;;;10510888;28;19905;-85
2022/01/22 01:47:06;;;;;;;;;;;;;;;;;;10550147;28;19904;-83
2022/01/22 01:52:12;;;;;;;;;;;;;;;;;;10537968;28;19912;-85
2022/01/22 01:57:38;;;;;;;;;;;;;;;;;;10520136;28;19950;-86
2022/01/22 02:02:40;;;;;;;;;;;;;;;;;;10521013;28;20423;-85
2022/01/22 02:07:42;;;;;;;;;;;;;;;;;;10519272;28;19912;-85
2022/01/22 02:28:33;;;;;;;;;;;;;;;;;;10520298;28;19905;-83
2022/01/22 02:33:41;;;;;;;;;;;;;;;;;;10518833;28;20334;-85
2022/01/22 02:38:59;;;;;;;;;;;;;;;;;;10520845;22;20370;-84
2022/01/22 02:44:01;;;;;;;;;;;;;;;;;;10530835;28;19969;-86
2022/01/22 02:49:03;;;;;;;;;;;;;;;;;;10507236;28;19911;-85
2022/01/22 02:54:04;;;;;;;;;;;;;;;;;;10506331;28;19990;-85
2022/01/22 02:59:05;;;;;;;;;;;;;;;;;;10504622;28;20427;-85
2022/01/22 03:04:06;;;;;;;;;;;;;;;;;;10510743;28;19904;-85
2022/01/22 03:09:09;;;;;;;;;;;;;;;;;;10512157;28;20358;-85
2022/01/22 03:15:29;;;;;;;;;;;;;;;;;;10512886;28;19957;-86
2022/01/22 03:30:04;;;;;;;;;;;;;;;;;;10554980;28;19908;-85
2022/01/22 03:35:11;;;;;;;;;;;;;;;;;;10512164;28;19912;-86
2022/01/22 03:40:12;;;;;;;;;;;;;;;;;;10512506;28;19912;-86
2022/01/22 03:45:13;;;;;;;;;;;;;;;;;;10511651;28;19926;-85
2022/01/22 03:50:14;;;;;;;;;;;;;;;;;;10511373;28;19949;-85
2022/01/22 03:55:43;;;;;;;;;;;;;;;;;;10513467;28;19931;-85
2022/01/22 04:00:44;;;;;;;;;;;;;;;;;;10510181;28;20377;-86
2022/01/22 04:06:09;;;;;;;;;;;;;;;;;;10510499;28;19911;-85
2022/01/22 04:11:10;;;;;;;;;;;;;;;;;;10513315;28;20419;-85
2022/01/22 04:16:13;;;;;;;;;;;;;;;;;;10509928;28;19951;-86
2022/01/22 04:31:54;;;;;;;;;;;;;;;;;;10512374;28;20350;-85
2022/01/22 04:36:55;;;;;;;;;;;;;;;;;;10506430;28;19908;-85
2022/01/22 04:41:56;;;;;;;;;;;;;;;;;;10505079;28;19957;-85
2022/01/22 04:47:13;;;;;;;;;;;;;;;;;;10504755;28;20417;-85
2022/01/22 04:57:34;;;;;;;;;;;;;;;;;;10510799;28;19913;-86
2022/01/22 05:02:35;;;;;;;;;;;;;;;;;;10508387;28;19904;-86
2022/01/22 05:07:36;;;;;;;;;;;;;;;;;;10508380;28;19909;-86
2022/01/22 05:12:37;;;;;;;;;;;;;;;;;;10508463;28;19905;-85
2022/01/22 05:17:40;;;;;;;;;;;;;;;;;;10507517;28;19915;-86
2022/01/22 05:38:11;;;;;;;;;;;;;;;;;;10508085;28;19916;-85
2022/01/22 05:43:12;;;;;;;;;;;;;;;;;;10508221;28;19911;-85
2022/01/22 05:48:13;;;;;;;;;;;;;;;;;;10506771;28;19909;-86
2022/01/22 05:53:28;;;;;;;;;;;;;;;;;;10506558;28;19970;-85
2022/01/22 06:03:48;;;;;;;;;;;;;;;;;;10507522;28;19904;-86
2022/01/22 06:08:53;;;;;;;;;;;;;;;;;;10506270;28;19904;-85
2022/01/22 06:13:54;;;;;;;;;;;;;;;;;;10505165;28;19911;-86
2022/01/22 06:18:55;;;;;;;;;;;;;;;;;;10504698;28;19915;-85
2022/01/22 06:23:56;;;;;;;;;;;;;;;;;;10502958;28;20394;-85
2022/01/22 06:28:58;;;;;;;;;;;;;;;;;;10503035;28;19980;-86
2022/01/22 06:33:59;;;;;;;;;;;;;;;;;;10501979;28;19919;-86
2022/01/22 06:39:15;;;;;;;;;;;;;;;;;;10500407;28;19916;-86
2022/01/22 06:44:16;;;;;;;;;;;;;;;;;;10501859;28;19908;-86
2022/01/22 06:49:18;;;;;;;;;;;;;;;;;;10507088;28;19924;-86
2022/01/22 06:54:21;;;;;;;;;;;;;;;;;;10503372;28;20439;-84
2022/01/22 06:59:22;;;;;;;;;;;;;;;;;;10528241;28;19914;-82
2022/01/22 07:04:23;;;;;;;;;;;;;;;;;;10511056;28;19915;-84
2022/01/22 07:09:24;;;;;;;;;;;;;;;;;;10506420;28;19953;-85
2022/01/22 07:14:26;;;;;;;;;;;;;;;;;;10505994;28;19910;-84
2022/01/22 07:19:27;;;;;;;;;;;;;;;;;;10506124;28;19904;-84
2022/01/22 07:24:36;;;;;;;;;;;;;;;;;;10513642;28;19905;-84
2022/01/22 07:29:37;;;;;;;;;;;;;;;;;;10518768;28;19955;-84
2022/01/22 07:34:38;;;;;;;;;;;;;;;;;;10546165;28;19908;-85
2022/01/22 07:39:39;;;;;;;;;;;;;;;;;;10508708;28;19935;-85
2022/01/22 07:44:40;;;;;;;;;;;;;;;;;;10508966;28;19905;-85
2022/01/22 07:49:41;;;;;;;;;;;;;;;;;;10515191;28;19909;-85
2022/01/22 07:54:42;;;;;;;;;;;;;;;;;;10521654;28;20273;-85
2022/01/22 07:59:42;;;;;;;;;;;;;;;;;;10516663;28;19904;-85
2022/01/22 08:04:43;;;;;;;;;;;;;;;;;;10519167;28;19908;-85
2022/01/22 08:09:45;;;;;;;;;;;;;;;;;;10531536;28;19947;-81
2022/01/22 08:14:46;;;;;;;;;;;;;;;;;;10536969;28;19908;-81
2022/01/22 08:19:47;;;;;;;;;;;;;;;;;;10537634;28;19904;-82
2022/01/22 08:24:51;;;;;;;;;;;;;;;;;;10536475;28;19905;-81
2022/01/22 08:29:52;;;;;;;;;;;;;;;;;;10529403;28;19904;-82
2022/01/22 08:40:13;;;;;;;;;;;;;;;;;;10568960;22;19947;-78
2022/01/22 08:45:14;;;;;;;;;;;;;;;;;;10559507;28;20281;-78
2022/01/22 08:50:15;;;;;;;;;;;;;;;;;;10531536;28;20262;-77
2022/01/22 08:55:16;;;;;;;;;;;;;;;;;;10521433;28;19912;-79
2022/01/22 09:00:17;;;;;;;;;;;;;;;;;;10524506;28;19908;-79
2022/01/22 09:05:19;;;;;;;;;;;;;;;;;;10525298;28;19913;-80
2022/01/22 09:10:20;;;;;;;;;;;;;;;;;;10526419;28;19905;-80
2022/01/22 09:15:21;;;;;;;;;;;;;;;;;;10524048;28;19908;-80
2022/01/22 09:21:22;;;;;;;;;;;;;;;;;;10525230;28;19991;-80
2022/01/22 09:25:53;;;;;;;;;;;;;;;;;;10525377;28;19912;-81
2022/01/22 09:30:54;;;;;;;;;;;;;;;;;;10525206;28;19904;-79
2022/01/22 09:35:55;;;;;;;;;;;;;;;;;;10519736;28;19976;-79
2022/01/22 09:40:56;;;;;;;;;;;;;;;;;;10521967;28;19994;-79
2022/01/22 09:45:57;;;;;;;;;;;;;;;;;;10524336;28;19968;-79
2022/01/22 09:50:58;;;;;;;;;;;;;;;;;;10519945;28;19904;-79
2022/01/22 09:55:59;;;;;;;;;;;;;;;;;;10520838;28;19909;-78
2022/01/22 10:01:00;;;;;;;;;;;;;;;;;;10519164;28;19911;-78
2022/01/22 10:06:01;;;;;;;;;;;;;;;;;;10519249;28;20003;-78
2022/01/22 10:11:02;;;;;;;;;;;;;;;;;;10518839;28;19971;-78
2022/01/22 10:16:03;;;;;;;;;;;;;;;;;;10520571;28;20031;-78
2022/01/22 10:21:04;;;;;;;;;;;;;;;;;;10517038;28;19998;-78
2022/01/22 10:26:06;;;;;;;;;;;;;;;;;;10517271;28;20429;-78
2022/01/22 10:31:10;;;;;;;;;;;;;;;;;;10513582;28;19908;-77
2022/01/22 10:36:12;;;;;;;;;;;;;;;;;;10510728;28;19909;-77
2022/01/22 10:41:13;;;;;;;;;;;;;;;;;;10510878;28;19912;-77
2022/01/22 10:51:15;;;;;;;;;;;;;;;;;;10510764;28;19905;-78
2022/01/22 10:56:17;;;;;;;;;;;;;;;;;;10509774;28;19908;-76
2022/01/22 11:01:18;;;;;;;;;;;;;;;;;;10530232;28;19909;-77
2022/01/22 11:06:19;;;;;;;;;;;;;;;;;;10524723;28;20289;-78
2022/01/22 11:11:20;;;;;;;;;;;;;;;;;;10517770;28;19964;-77
2022/01/22 11:16:21;;;;;;;;;;;;;;;;;;10516277;28;19916;-76
2022/01/22 11:21:22;;;;;;;;;;;;;;;;;;10507706;28;19935;-77
2022/01/22 11:26:23;;;;;;;;;;;;;;;;;;10519397;28;19905;-77
2022/01/22 11:31:24;;;;;;;;;;;;;;;;;;10519823;28;19911;-78
2022/01/22 11:36:25;;;;;;;;;;;;;;;;;;10521354;28;19908;-78
2022/01/22 11:41:26;;;;;;;;;;;;;;;;;;10525903;28;19913;-79
2022/01/22 11:46:34;;;;;;;;;;;;;;;;;;10530071;28;19905;-78
2022/01/22 11:51:35;;;;;;;;;;;;;;;;;;10526462;28;19904;-78
2022/01/22 11:56:36;;;;;;;;;;;;;;;;;;10523206;28;19908;-78
2022/01/22 12:01:37;;;;;;;;;;;;;;;;;;10523237;28;19980;-78
2022/01/22 12:06:38;;;;;;;;;;;;;;;;;;10529603;28;19964;-78
2022/01/22 12:17:03;;;;;;;;;;;;;;;;;;10526606;28;19908;-77
2022/01/22 12:22:04;;;;;;;;;;;;;;;;;;10526524;28;20381;-78
2022/01/22 12:27:07;;;;;;;;;;;;;;;;;;10523614;28;19991;-78
2022/01/22 12:32:08;;;;;;;;;;;;;;;;;;10523167;28;20334;-80
2022/01/22 12:37:09;;;;;;;;;;;;;;;;;;10522478;28;19940;-79
2022/01/22 12:42:12;;;;;;;;;;;;;;;;;;10523411;28;20401;-79
2022/01/22 12:47:13;;;;;;;;;;;;;;;;;;10523701;28;19904;-82
2022/01/22 12:52:14;;;;;;;;;;;;;;;;;;10522106;28;20374;-79
2022/01/22 12:57:15;;;;;;;;;;;;;;;;;;10529623;28;19914;-81
2022/01/22 13:02:16;;;;;;;;;;;;;;;;;;10529742;28;19939;-83
2022/01/22 13:07:17;;;;;;;;;;;;;;;;;;10525719;28;19975;-82
2022/01/22 13:12:18;;;;;;;;;;;;;;;;;;10526972;28;19904;-82
2022/01/22 13:17:19;;;;;;;;;;;;;;;;;;10527813;28;19931;-83
2022/01/22 13:22:20;;;;;;;;;;;;;;;;;;10529539;28;19947;-83
2022/01/22 13:27:24;;;;;;;;;;;;;;;;;;10527380;28;19904;-84
2022/01/22 13:32:55;;;;;;;;;;;;;;;;;;10529248;28;19943;-84
2022/01/22 13:48:41;;;;;;;;;;;;;;;;;;10534610;28;19892;-83
2022/01/22 13:53:46;;;;;;;;;;;;;;;;;;10541911;28;19912;-83
2022/01/22 13:58:47;;;;;;;;;;;;;;;;;;10542297;28;19947;-83
2022/01/22 14:03:57;;;;;;;;;;;;;;;;;;10534105;28;19959;-83
2022/01/22 14:09:07;;;;;;;;;;;;;;;;;;10533877;28;19975;-83
2022/01/22 14:14:10;;;;;;;;;;;;;;;;;;10535141;28;19904;-84
2022/01/22 14:19:34;;;;;;;;;;;;;;;;;;10529981;28;19919;-84
2022/01/22 14:25:08;;;;;;;;;;;;;;;;;;10533638;28;19934;-84
2022/01/22 14:30:24;;;;;;;;;;;;;;;;;;10531548;28;19940;-83
2022/01/22 14:46:21;;;;;;;;;;;;;;;;;;10530818;28;20316;-84
2022/01/22 14:51:31;;;;;;;;;;;;;;;;;;10548617;28;19908;-85
2022/01/22 14:56:53;;;;;;;;;;;;;;;;;;10546952;28;19966;-84
2022/01/22 15:02:00;;;;;;;;;;;;;;;;;;10558159;28;19926;-84
2022/01/22 15:07:23;;;;;;;;;;;;;;;;;;10557527;28;19908;-85
2022/01/22 15:12:51;;;;;;;;;;;;;;;;;;10553778;28;19990;-84
2022/01/22 15:23:22;;;;;;;;;;;;;;;;;;10349259;28;20284;-84
2022/01/22 15:39:20;;;;;;;;;;;;;;;;;;;;;
2022/01/22 15:44:38;;;;;;;;;;;;;;;;;;10558668;28;19904;-84
2022/01/22 16:06:19;;;;;;;;;;;;;;;;;;10367100;28;19929;-84
2022/01/22 16:11:22;;;;;;;;;;;;;;;;;;10342389;28;19906;-84
2022/01/22 16:16:41;;;;;;;;;;;;;;;;;;10356293;28;19910;-84
2022/01/22 16:21:55;;;;;;;;;;;;;;;;;;;;;
2022/01/22 16:27:04;;;;;;;;;;;;;;;;;;10566443;28;20328;-84
2022/01/22 16:32:23;;;;;;;;;;;;;;;;;;10546106;28;19904;-84
2022/01/22 16:42:36;;;;;;;;;;;;;;;;;;10437475;28;20306;-85
2022/01/22 16:58:36;;;;;;;;;;;;;;;;;;10295970;28;19914;-85
2022/01/22 17:04:01;;;;;;;;;;;;;;;;;;10391453;28;20012;-83
2022/01/22 17:14:40;;;;;;;;;;;;;;;;;;10396523;28;19933;-83
2022/01/22 17:25:17;;;;;;;;;;;;;;;;;;10395932;28;19905;-84
2022/01/22 17:30:25;;;;;;;;;;;;;;;;;;10391942;28;19910;-84
2022/01/22 17:35:48;;;;;;;;;;;;;;;;;;10387144;28;20000;-83
2022/01/22 17:51:37;;;;;;;;;;;;;;;;;;10307018;28;19910;-83
2022/01/22 17:56:46;;;;;;;;;;;;;;;;;;10265533;29;19914;-83
2022/01/22 18:02:04;;;;;;;;;;;;;;;;;;;;;
